Miami, Florida
Traffic Map
Current Weather Conditions
Miami, Florida
Clear
Clear

Feels Like: 7°
Wind Chill: Ceiling: Unl
Heat Index: Visibility: 10mi
Dew Point: Wind: 9mph
Humidity: 74% Direction: 340° (NNW)
Pressure: 30.27in Gusts: 0mph
Raw Report DataKOPF 111153Z 34008KT 10SM CLR 09/05 A3027 RMK AO2 SLP251 7//// T00940050 10111 20094 53007
Traffic Incident Summary
Active as of:
Severity:
Category:
InformationThere was an issue retrieving the traffic information for this location. Please try a different location or try again shortly.
Advertisements